HTDA/DAR METAR and TAF weather

Enter ICAO airport designator
Station Type Date Time Source
HTDA METAR 2020/03/29 20:00 UTC NOAA

HTDA 292000Z VRB02KT 9999 FEW015 FEW017CB 26/24 Q1011 NOSIG


Station Type Date Time Source
HTDA Decoded METAR 2020/03/29 20:00 UTC NOAA

Dar Es Salaam Airport, Tanzania (HTDA) 06-52S 039-12E 55M
Mar 29, 2020 - 04:00 PM EDT / 2020.03.29 2000 UTC
Wind: Variable at 2 MPH (2 KT):0
Visibility: greater than 7 mile(s):0
Sky conditions: mostly clear
Weather: Cumulonimbus clouds observed
Temperature: 78 F (26 C)
Dew Point: 75 F (24 C)
Relative Humidity: 88%
Pressure (altimeter): 29.85 in. Hg (1011 hPa)
ob: HTDA 292000Z VRB02KT 9999 FEW015 FEW017CB 26/24 Q1011 NOSIG
cycle: 20

Station Type Date Time Source
HTDA TAF 2020/03/29 18:24 UTC NOAA

TAF HTDA 291700Z 2918/3024 00000KT 9999 SCT014 FEW015CB
BECMG 3005/3008 12010KT BKN018 FEW019CB

Example: see airport list